Alderton, Washington
Current Conditions -  °F | °C
As of 7:58 PM on Friday 24 Oct 2014 (Local Time) from KTCM Reporting Station
Light Rain Light Rain  
Wind Chill: 52°   Ceiling: 6000
Heat Index: 52°   Visibility: 7mi
Dew Point: 51°   Wind: 2mph
Humidity: 99%   Direction: 60°ENE
Pressure: 29.83"   Gusts: NA
Location:  47.1905°N, 122.328°W
Report Text: KTCM 250258Z AUTO 06002KT 7SM -RA OVC060 11/11 A2983 RMK AO2 SLP106 P0005 60006 T01100108 57016 $
Loading
Personal Weather Stations






























Interactive Weather Map New forecast layout! Learn more

10-Day Weather Forecast

Advertisements
Track Severe Weather on mobile